KBYH/BYH METAR and TAF weather

Enter ICAO airport designator
Station Type Date Time Source
KBYH METAR 2021/03/05 21:54 UTC NOAA

KBYH 052154Z 04009G15KT 10SM SCT090 OVC150 08/M01 A3023 RMK LAST


Station Type Date Time Source
KBYH Decoded METAR 2021/03/05 21:54 UTC NOAA

Eaker Air Force Base, AR, United States (KBYH) 35-58N 089-57W
Mar 05, 2021 - 04:54 PM EST / 2021.03.05 2154 UTC
Wind: from the NE (040 degrees) at 10 MPH (9 KT) gusting to 17 MPH (15 KT):0
Visibility: 10 mile(s):0
Sky conditions: overcast
Temperature: 46 F (8 C)
Dew Point: 30 F (-1 C)
Relative Humidity: 52%
Pressure (altimeter): 30.23 in. Hg (1023 hPa)
ob: KBYH 052154Z 04009G15KT 10SM SCT090 OVC150 08/M01 A3023 RMK LAST
cycle: 22

Station Type Date Time Source
KBYH TAF UTC NOAA

Error!

Example: see airport list